Latest Weather Observations for Low Rocky Point

IDT60801

Issued at 2:02 pm EST Sunday 5 July 2015 (issued every 30 minutes, with the page automatically refreshed every 10 minutes)

About weather observations | Map of weather stations | Latest weather observations for TAS | Other Formats
Station Details ID: 097080 Name: LOW ROCKY POINT Lat: -42.98 Lon: 145.50 Height: 34.0 m
Data from the previous 72 hours. | See also: Recent months at Low Rocky Point
Date/Time
EST
Temp
°C
App
Temp
°C
Dew
Point
Rel
Hum
%
Delta-T
°C
Wind Press
QNH
hPa
Press
MSL
hPa
Rain
since 9 am
mm
Dir
 
Spd
km/h
Gust
km/h
Spd
kts
Gust
kts
05/02:00pm 9.8 6.7 5.4 74 2.0 SSE 11 17 6 9 1013.6 1013.7 0.0
05/01:30pm 10.1 7.0 5.7 74 2.0 SE 11 17 6 9 1013.6 1013.7 0.0
05/01:00pm 10.2 7.2 6.0 75 1.9 SE 11 15 6 8 1013.7 1013.8 0.0
05/12:30pm 9.9 6.5 5.7 75 1.9 SE 13 15 7 8 1013.9 1014.0 0.0
05/12:00pm 10.1 6.7 6.1 76 1.9 SSE 13 17 7 9 1014.0 1014.1 0.0
05/11:30am 9.9 7.3 6.1 77 1.8 SE 9 13 5 7 1014.2 1014.3 0.0
05/11:00am 9.8 7.2 6.0 77 1.8 SE 9 11 5 6 1014.4 1014.5 0.0
05/10:30am 9.8 7.8 6.2 78 1.7 SE 6 9 3 5 1014.7 1014.8 0.0
05/10:00am 9.4 6.8 5.9 79 1.6 ENE 9 13 5 7 1014.5 1014.6 0.0
05/09:30am 8.7 5.2 5.3 79 1.5 ENE 13 15 7 8 1014.4 1014.5 0.0
05/09:00am 8.4 5.5 4.8 78 1.6 NE 9 13 5 7 1014.5 1014.6 0.0
05/08:30am 9.2 5.6 5.2 76 1.8 SSE 13 20 7 11 1014.3 1014.4 0.0
05/08:00am 9.3 5.8 5.3 76 1.8 SSE 13 17 7 9 1014.2 1014.3 0.0
05/07:30am 9.5 6.0 5.5 76 1.8 S 13 19 7 10 1014.1 1014.2 0.0
05/07:00am 9.8 7.1 5.6 75 1.9 SW 9 13 5 7 1013.8 1013.9 0.0
05/06:30am 9.9 6.8 5.5 74 2.0 WSW 11 17 6 9 1013.7 1013.8 0.0
05/06:00am 10.0 6.2 5.6 74 2.0 WSW 15 24 8 13 1013.8 1013.9 0.0
05/05:30am 10.0 5.8 5.6 74 2.0 WSW 17 20 9 11 1013.7 1013.8 0.0
05/05:00am 10.0 5.4 5.6 74 2.0 W 19 22 10 12 1013.6 1013.7 0.0
05/04:30am 10.1 5.3 5.5 73 2.1 W 20 24 11 13 1013.7 1013.8 0.0
05/04:00am 10.0 4.4 5.4 73 2.1 WNW 24 28 13 15 1013.8 1013.9 0.0
05/03:30am 10.0 4.4 5.4 73 2.1 WNW 24 30 13 16 1014.1 1014.2 0.0
05/03:00am 9.7 4.0 4.9 72 2.2 WNW 24 30 13 16 1014.2 1014.3 0.0
05/02:30am 10.0 4.4 5.4 73 2.1 WNW 24 30 13 16 1014.3 1014.4 0.0
05/02:00am 9.9 3.9 5.1 72 2.2 WNW 26 32 14 17 1014.4 1014.5 0.0
05/01:30am 10.0 4.0 5.2 72 2.2 WNW 26 32 14 17 1014.2 1014.3 0.0
05/01:00am 9.9 3.9 5.1 72 2.2 WNW 26 33 14 18 1014.4 1014.5 0.0
05/12:30am 10.0 3.2 5.2 72 2.2 WNW 30 35 16 19 1014.5 1014.6 0.0
05/12:00am 10.0 2.8 5.2 72 2.2 WNW 32 35 17 19 1014.6 1014.7 0.0
 
Date/Time
EST
Temp
°C
App
Temp
°C
Dew
Point
Rel
Hum
%
Delta-T
°C
Wind Press
QNH
hPa
Press
MSL
hPa
Rain
since 9 am
mm
Dir
 
Spd
km/h
Gust
km/h
Spd
kts
Gust
kts
04/11:30pm 10.1 3.4 5.7 74 2.0 WNW 30 37 16 20 1014.7 1014.8 0.0
04/11:00pm 9.9 3.9 5.3 73 2.1 WNW 26 33 14 18 1014.7 1014.8 0.0
04/10:30pm 10.0 4.0 5.2 72 2.2 WNW 26 33 14 18 1014.9 1015.0 0.0
04/10:00pm 9.9 3.4 4.9 71 2.2 WNW 28 35 15 19 1015.0 1015.1 0.0
04/09:30pm 10.0 4.0 5.2 72 2.2 WNW 26 32 14 17 1015.0 1015.1 0.0
04/09:00pm 10.0 3.6 5.0 71 2.3 WNW 28 33 15 18 1014.9 1015.0 0.0
04/08:30pm 9.9 3.1 4.9 71 2.3 WNW 30 35 16 19 1015.1 1015.2 0.0
04/08:00pm 10.1 3.3 5.3 72 2.2 WNW 30 37 16 20 1015.1 1015.2 0.0
04/07:30pm 9.9 3.1 5.3 73 2.1 W 30 39 16 21 1015.1 1015.2 0.0
04/07:00pm 9.9 3.6 5.5 74 2.0 W 28 33 15 18 1015.0 1015.1 0.0
04/06:30pm 9.9 3.9 5.1 72 2.2 W 26 33 14 18 1014.8 1014.9 0.0
04/06:00pm 10.0 3.7 5.6 74 2.0 W 28 35 15 19 1014.7 1014.8 0.0
04/05:30pm 9.8 2.7 5.4 74 2.0 W 32 39 17 21 1014.4 1014.5 0.0
04/05:00pm 10.0 2.9 5.6 74 2.0 W 32 39 17 21 1014.2 1014.3 0.0
04/04:30pm 10.1 2.5 5.9 75 1.9 W 35 43 19 23 1014.3 1014.4 0.0
04/04:00pm 10.3 3.3 5.9 74 2.0 W 32 37 17 20 1014.2 1014.3 0.0
04/03:30pm 10.4 3.4 6.0 74 2.0 W 32 39 17 21 1014.3 1014.4 0.0
04/03:00pm 10.2 3.5 5.8 74 2.0 W 30 39 16 21 1014.1 1014.2 0.0
04/02:30pm 10.4 3.8 6.2 75 2.0 W 30 37 16 20 1014.0 1014.1 0.0
04/02:00pm 10.4 3.7 5.6 72 2.2 W 30 37 16 20 1014.0 1014.1 0.0
04/01:30pm 10.3 3.1 5.9 74 2.0 W 33 43 18 23 1013.9 1014.0 0.0
04/01:00pm 10.4 2.8 6.0 74 2.0 W 35 46 19 25 1013.7 1013.8 0.0
04/12:30pm 10.5 2.9 5.7 72 2.2 W 35 43 19 23 1013.9 1014.0 0.0
04/12:00pm 10.5 3.0 6.1 74 2.0 W 35 43 19 23 1014.1 1014.2 0.0
04/11:30am 10.3 2.0 6.3 76 1.9 W 39 48 21 26 1014.3 1014.4 0.0
04/11:00am 10.6 2.9 6.9 78 1.8 W 37 46 20 25 1014.4 1014.5 0.0
04/10:30am 10.2 2.6 7.6 84 1.2 WSW 37 48 20 26 1014.2 1014.3 0.0
04/10:00am 10.5 2.3 8.1 85 1.2 W 41 50 22 27 1013.9 1014.0 0.0
04/09:30am 10.4 3.5 8.7 89 0.8 WSW 35 44 19 24 1013.7 1013.8 0.0
04/09:00am 10.2 3.6 8.6 90 0.8 WSW 33 41 18 22 1013.5 1013.6 11.0
04/08:30am 10.3 1.9 9.1 92 0.6 W 43 52 23 28 1013.0 1013.1 11.0
04/08:00am 10.1 2.6 9.3 95 0.4 W 39 50 21 27 1012.8 1012.9 11.0
04/07:30am 10.2 2.8 9.9 98 0.2 W 39 46 21 25 1012.5 1012.6 11.0
04/07:00am 10.5 3.6 10.3 99 0.1 W 37 46 20 25 1012.3 1012.4 11.0
04/06:30am 10.4 2.6 9.9 97 0.3 W 41 50 22 27 1012.0 1012.1 10.8
04/06:00am 11.0 3.5 10.8 99 0.1 W 41 50 22 27 1011.7 1011.8 10.8
04/05:30am 10.7 3.5 10.5 99 0.1 W 39 48 21 26 1011.4 1011.5 10.8
04/05:00am 10.9 3.4 10.7 99 0.1 W 41 50 22 27 1011.2 1011.3 10.8
04/04:30am 10.9 1.6 10.7 99 0.1 W 50 61 27 33 1011.0 1011.1 10.6
04/04:00am 11.3 2.5 11.1 99 0.1 WNW 48 59 26 32 1010.9 1011.0 10.4
04/03:30am 11.2 1.3 11.0 99 0.1 W 54 67 29 36 1010.8 1010.9 10.4
04/03:00am 10.7 0.1 10.5 99 0.1 WNW 57 70 31 38 1011.0 1011.1 9.4
04/02:41am 11.5 1.7 11.3 99 0.1 NW 54 72 29 39 1010.4 1010.5 7.6
04/02:30am 11.5 1.1 11.3 99 0.1 NW 57 72 31 39 1010.5 1010.6 7.2
04/02:00am 11.3 2.5 11.1 99 0.1 NW 48 59 26 32 1010.9 1011.0 6.4
04/01:30am 11.3 1.8 11.1 99 0.1 NW 52 67 28 36 1011.2 1011.3 6.0
04/01:00am 11.0 1.7 10.7 98 0.2 NW 50 61 27 33 1011.8 1011.9 5.6
04/12:30am 10.9 1.2 10.6 98 0.2 NW 52 65 28 35 1012.0 1012.1 5.4
04/12:00am 10.9 0.8 10.4 97 0.3 NW 54 67 29 36 1012.6 1012.7 4.2
 
Date/Time
EST
Temp
°C
App
Temp
°C
Dew
Point
Rel
Hum
%
Delta-T
°C
Wind Press
QNH
hPa
Press
MSL
hPa
Rain
since 9 am
mm
Dir
 
Spd
km/h
Gust
km/h
Spd
kts
Gust
kts
03/11:49pm 10.8 1.8 10.3 97 0.3 NW 48 67 26 36 1012.6 1012.7 4.0
03/11:30pm 10.7 0.2 10.2 97 0.3 NW 56 69 30 37 1012.8 1012.9 3.8
03/11:18pm 10.7 1.3 10.2 97 0.3 NW 50 98 27 53 1012.9 1013.0 3.6
03/11:00pm 10.8 1.4 10.2 96 0.3 NW 50 65 27 35 1013.3 1013.4 3.4
03/10:30pm 10.5 0.3 9.9 96 0.3 NW 54 65 29 35 1013.6 1013.7 3.4
03/10:01pm 10.2 -0.2 9.3 94 0.4 NW 54 80 29 43 1013.8 1013.9 2.8
03/10:00pm 10.3 -0.1 9.4 94 0.4 NW 54 67 29 36 1013.9 1014.0 2.8
03/09:39pm 9.8 0.0 8.6 92 0.6 NW 50 69 27 37 1014.3 1014.4 2.8
03/09:30pm 9.8 -1.8 8.2 90 0.8 WNW 59 74 32 40 1014.5 1014.6 2.6
03/09:06pm 10.6 -0.6 8.5 87 1.0 NW 57 80 31 43 1014.5 1014.6 1.8
03/09:00pm 10.6 -0.3 8.7 88 0.9 NW 56 70 30 38 1014.4 1014.5 1.8
03/08:32pm 10.1 -0.4 8.7 91 0.7 NW 54 72 29 39 1014.9 1015.0 1.8
03/08:30pm 9.9 -1.1 8.5 91 0.7 NW 56 72 30 39 1014.9 1015.0 1.8
03/08:01pm 9.8 -0.8 8.6 92 0.6 NW 54 72 29 39 1015.2 1015.3 1.8
03/08:00pm 9.7 -0.9 8.5 92 0.6 NW 54 69 29 37 1015.2 1015.3 1.8
03/07:48pm 9.1 -1.6 7.9 92 0.6 NW 54 72 29 39 1015.7 1015.7 1.8
03/07:30pm 9.8 -1.3 8.1 89 0.8 NW 56 69 30 37 1015.6 1015.6 1.2
03/07:00pm 9.4 -1.9 8.0 91 0.7 NW 57 76 31 41 1015.9 1015.9 1.2
03/06:50pm 9.9 -1.1 8.5 91 0.7 NW 56 78 30 42 1015.8 1015.8 1.2
03/06:30pm 9.6 -1.0 8.4 92 0.6 NW 54 65 29 35 1016.0 1016.0 1.2
03/06:00pm 9.3 -2.0 7.9 91 0.7 NW 57 72 31 39 1016.5 1016.6 1.2
03/05:47pm 9.5 -0.5 7.9 90 0.8 NW 50 69 27 37 1016.4 1016.4 1.0
03/05:30pm 9.5 -1.3 7.8 89 0.8 NW 54 70 29 38 1016.6 1016.6 1.0
03/05:04pm 9.7 -0.6 8.0 89 0.8 NW 52 78 28 42 1016.9 1016.9 1.0
03/05:00pm 9.5 -0.9 7.8 89 0.8 NW 52 65 28 35 1017.0 1017.1 1.0
03/04:30pm 9.4 -1.1 7.5 88 0.9 NW 52 65 28 35 1017.3 1017.3 1.0
03/04:00pm 8.9 -3.0 7.2 89 0.8 NW 59 74 32 40 1017.5 1017.6 1.0
03/03:30pm 9.6 -0.5 7.5 87 1.0 NW 50 61 27 33 1017.8 1017.8 0.8
03/03:10pm 9.5 -0.6 7.3 86 1.0 NW 50 69 27 37 1017.7 1017.7 0.8
03/03:00pm 9.8 0.1 7.4 85 1.1 NW 48 61 26 33 1017.8 1017.9 0.8
03/02:42pm 9.4 -1.1 7.5 88 0.9 NW 52 70 28 38 1017.9 1017.9 0.8
03/02:30pm 9.1 -1.1 6.9 86 1.0 WNW 50 65 27 35 1018.1 1018.1 0.8
03/02:00pm 9.7 0.1 8.0 89 0.8 NW 48 65 26 35 1018.5 1018.6 0.8
03/01:51pm 9.5 0.2 7.6 88 0.9 NW 46 65 25 35 1018.8 1018.8 0.8
03/01:30pm 9.5 0.3 7.8 89 0.8 WNW 46 61 25 33 1019.2 1019.2 0.8
03/01:00pm 9.3 1.0 7.9 91 0.7 WNW 41 50 22 27 1019.8 1019.9 0.6
03/12:30pm 9.5 1.2 7.9 90 0.8 WNW 41 50 22 27 1020.3 1020.3 0.6
03/12:00pm 9.0 0.6 7.3 89 0.8 NW 41 52 22 28 1020.8 1020.9 0.6
03/11:30am 8.8 0.3 6.9 88 0.9 WNW 41 50 22 27 1021.5 1021.5 0.4
03/11:00am 9.9 1.5 7.3 84 1.2 NW 41 56 22 30 1021.9 1022.0 0.2
03/10:30am 8.9 -0.6 6.9 87 0.9 WNW 46 56 25 30 1022.2 1022.2 0.2
03/10:00am 8.3 0.8 6.4 88 0.9 NW 35 48 19 26 1022.5 1022.6 0.2
03/09:35am 8.7 1.8 6.5 86 1.0 NW 32 50 17 27 1022.6 1022.6 0.2
03/09:30am 8.6 2.1 6.4 86 1.0 NW 30 43 16 23 1022.7 1022.7 0.2
03/09:00am 8.4 1.1 5.5 82 1.3 NW 33 43 18 23 1022.8 1022.9 2.6
03/08:30am 8.9 2.6 5.5 79 1.5 NW 28 41 15 22 1022.8 1022.8 2.6
03/08:04am 9.4 2.4 5.8 78 1.6 NW 32 50 17 27 1022.8 1022.8 2.6
03/08:00am 9.1 2.4 5.5 78 1.6 NW 30 39 16 21 1022.8 1022.9 2.6
03/07:30am 9.2 3.2 5.4 77 1.7 WNW 26 43 14 23 1022.6 1022.6 2.6
03/07:00am 8.4 1.9 4.8 78 1.6 WNW 28 37 15 20 1022.8 1022.9 2.6
03/06:30am 8.6 2.8 4.6 76 1.8 WNW 24 32 13 17 1022.7 1022.7 2.6
03/06:00am 9.1 2.7 5.1 76 1.8 WNW 28 37 15 20 1022.6 1022.7 2.6
03/05:30am 8.9 2.8 4.7 75 1.9 WNW 26 30 14 16 1022.7 1022.7 2.6
03/05:00am 9.1 3.1 5.1 76 1.8 WNW 26 33 14 18 1022.8 1022.9 2.6
03/04:30am 8.9 2.1 5.1 77 1.7 WNW 30 35 16 19 1022.9 1022.9 2.6
03/04:00am 8.0 3.6 4.6 79 1.5 WNW 17 26 9 14 1023.3 1023.4 2.6
03/03:30am 8.3 1.8 4.7 78 1.6 WNW 28 35 15 19 1023.7 1023.8 2.6
03/03:00am 8.2 2.8 4.6 78 1.6 W 22 28 12 15 1024.0 1024.1 2.6
03/02:30am 8.1 1.9 4.5 78 1.6 W 26 32 14 17 1024.3 1024.4 2.6
03/02:00am 8.1 0.8 4.3 77 1.7 W 32 37 17 20 1024.2 1024.3 2.6
03/01:30am 8.4 1.9 4.6 77 1.7 W 28 39 15 21 1024.1 1024.2 2.6
03/01:00am 8.2 0.9 4.4 77 1.7 W 32 43 17 23 1024.2 1024.3 2.6
03/12:30am 7.8 2.3 4.2 78 1.6 WNW 22 28 12 15 1024.4 1024.5 2.6
03/12:13am 7.5 0.5 3.9 78 1.5 W 30 37 16 20 1024.4 1024.5 2.6
03/12:00am 8.0 0.0 3.8 75 1.8 W 35 46 19 25 1024.4 1024.5 2.4
 
Date/Time
EST
Temp
°C
App
Temp
°C
Dew
Point
Rel
Hum
%
Delta-T
°C
Wind Press
QNH
hPa
Press
MSL
hPa
Rain
since 9 am
mm
Dir
 
Spd
km/h
Gust
km/h
Spd
kts
Gust
kts
02/11:30pm 8.4 2.1 4.0 74 1.9 W 26 35 14 19 1024.4 1024.5 2.4
02/11:00pm 8.0 1.7 3.8 75 1.8 W 26 30 14 16 1024.4 1024.5 2.4
02/10:30pm 7.9 1.3 4.1 77 1.6 SW 28 39 15 21 1024.5 1024.6 2.4
02/10:00pm 7.2 2.5 3.4 77 1.6 WSW 17 22 9 12 1024.5 1024.6 2.2
02/09:38pm 7.7 1.0 3.6 75 1.8 SW 28 46 15 25 1024.3 1024.4 2.2
02/09:30pm 7.9 2.0 3.8 75 1.8 SW 24 35 13 19 1024.2 1024.3 2.2
02/09:00pm 8.0 2.5 4.0 76 1.7 WSW 22 33 12 18 1024.1 1024.2 2.2
02/08:30pm 7.9 1.2 3.6 74 1.8 WSW 28 37 15 20 1023.7 1023.8 2.2
02/08:00pm 8.0 1.7 3.7 74 1.8 WSW 26 35 14 19 1023.5 1023.6 2.2
02/07:30pm 7.6 0.1 3.3 74 1.8 SW 32 43 17 23 1023.2 1023.2 2.2
02/07:00pm 7.2 1.6 3.6 78 1.5 SW 22 39 12 21 1022.6 1022.7 2.2
02/06:30pm 7.0 0.3 3.4 78 1.5 SW 28 35 15 19 1022.3 1022.3 2.2
02/06:00pm 7.2 0.1 3.3 76 1.6 WSW 30 44 16 24 1021.9 1022.0 2.0
02/05:40pm 7.8 0.7 3.7 75 1.8 SW 30 50 16 27 1021.7 1021.7 2.0
02/05:30pm 7.6 0.9 3.5 75 1.7 SW 28 39 15 21 1021.6 1021.6 2.0
02/05:00pm 7.7 1.8 3.9 77 1.6 SW 24 37 13 20 1021.4 1021.5 2.0
02/04:53pm 6.9 -0.3 3.2 77 1.6 SSW 30 48 16 26 1021.4 1021.4 2.0
02/04:47pm 7.2 -0.9 3.4 77 1.6 SSW 35 48 19 26 1021.3 1021.3 2.0
02/04:30pm 7.7 0.2 3.6 75 1.8 SW 32 44 17 24 1021.0 1021.0 2.0
02/04:00pm 6.9 -0.6 3.2 77 1.6 SW 32 50 17 27 1020.4 1020.5 2.0
02/03:48pm 7.7 1.0 3.7 76 1.7 SW 28 54 15 29 1020.3 1020.3 1.8
02/03:30pm 7.8 0.8 4.2 78 1.6 WSW 30 43 16 23 1020.1 1020.1 1.8
02/03:06pm 6.8 -2.1 3.1 77 1.6 WSW 39 57 21 31 1020.1 1020.1 1.8
02/03:00pm 8.2 -0.4 4.4 77 1.7 WSW 39 52 21 28 1019.8 1019.9 1.8
02/02:44pm 8.4 1.1 4.6 77 1.7 WSW 32 50 17 27 1019.5 1019.5 1.8
02/02:30pm 8.0 0.4 4.0 76 1.7 WSW 33 46 18 25 1019.3 1019.3 1.8
02/02:02pm 7.8 0.2 4.0 77 1.6 WSW 33 56 18 30 1018.9 1018.9 1.8

Other Formats:

Comma delimited format used in spreadsheet applications
http://www.bom.gov.au/fwo/IDT60801/IDT60801.95961.axf

JavaScript Object Notation format (JSON) in row-major order
http://www.bom.gov.au/fwo/IDT60801/IDT60801.95961.json